createdAt,value
2023-01-03T00:02:22.873Z,99511.59
2023-01-03T00:04:50.657Z,99510.75
2023-01-03T00:07:33.945Z,99517.41
2023-01-03T00:10:04.897Z,99504.16
2023-01-03T00:12:32.710Z,99493.38
2023-01-03T00:15:01.283Z,99506.63
2023-01-03T00:17:29.731Z,99504.69
2023-01-03T00:19:57.517Z,99514.38
2023-01-03T00:22:25.436Z,99506.63
2023-01-03T00:24:54.362Z,99520.47
2023-01-03T00:27:22.024Z,99523.78
2023-01-03T00:29:50.758Z,99520.72
2023-01-03T00:32:18.433Z,99520.44
2023-01-03T00:34:47.561Z,99524.84
2023-01-03T00:37:16.722Z,99516.53
2023-01-03T00:39:44.869Z,99524.84
2023-01-03T00:42:12.795Z,99519.84
2023-01-03T00:44:40.592Z,99519.03
2023-01-03T00:47:08.286Z,99524.56
2023-01-03T00:49:36.045Z,99517.66
2023-01-03T00:52:03.754Z,99525.09
2023-01-03T00:54:31.643Z,99526.78
2023-01-03T00:56:59.334Z,99524.84
2023-01-03T00:59:27.534Z,99535.88
2023-01-03T01:01:58.549Z,99539.78
2023-01-03T01:04:28.142Z,99546.44
2023-01-03T01:07:01.635Z,99541.44
2023-01-03T01:09:33.387Z,99543.13
2023-01-03T01:12:01.102Z,99543.94
2023-01-03T01:14:31.021Z,99539.00
2023-01-03T01:17:01.761Z,99537.09
2023-01-03T01:19:36.188Z,99540.06
2023-01-03T01:22:04.695Z,99531.75
2023-01-03T01:24:32.967Z,99531.75
2023-01-03T01:27:01.024Z,99540.09
2023-01-03T01:29:28.858Z,99519.47
2023-01-03T01:31:56.787Z,99492.38
2023-01-03T01:34:24.845Z,99544.81
2023-01-03T01:36:52.534Z,99525.88
2023-01-03T01:39:25.283Z,99555.75
2023-01-03T01:42:19.307Z,99556.06
2023-01-03T01:44:55.801Z,99561.09
2023-01-03T01:47:26.842Z,99560.81
2023-01-03T01:49:58.137Z,99561.63
2023-01-03T01:52:26.537Z,99559.16
2023-01-03T01:54:55.412Z,99557.47
2023-01-03T01:57:26.591Z,99551.69
2023-01-03T01:59:54.250Z,99560.00
2023-01-03T02:02:24.347Z,99545.56
2023-01-03T02:04:56.954Z,99550.84
2023-01-03T02:07:24.834Z,99553.63
2023-01-03T02:09:57.256Z,99557.84
2023-01-03T02:12:56.992Z,99562.06
2023-01-03T02:15:39.782Z,99558.75
2023-01-03T02:18:19.660Z,99552.38
2023-01-03T02:21:09.686Z,99546.84
2023-01-03T02:23:49.163Z,99542.97
2023-01-03T02:26:16.814Z,99552.41
2023-01-03T02:29:02.574Z,99547.97
2023-01-03T02:31:45.570Z,99550.78
2023-01-03T02:34:35.173Z,99560.41
2023-01-03T02:37:21.061Z,99549.91
2023-01-03T02:40:10.611Z,99541.91
2023-01-03T02:43:02.993Z,99535.28
2023-01-03T02:45:30.575Z,99544.41
2023-01-03T02:48:12.702Z,99526.47
2023-01-03T02:50:50.430Z,99518.72
2023-01-03T02:53:26.181Z,99526.44
2023-01-03T02:55:56.213Z,99542.44
2023-01-03T02:58:29.332Z,99547.69
2023-01-03T03:00:59.999Z,99549.34
2023-01-03T03:03:32.533Z,99552.91
2023-01-03T03:06:41.947Z,99560.66
2023-01-03T03:09:09.801Z,99538.84
2023-01-03T03:11:58.659Z,99555.69
2023-01-03T03:14:48.766Z,99559.56
2023-01-03T03:17:24.508Z,99548.56
2023-01-03T03:20:14.464Z,99542.47
2023-01-03T03:23:05.135Z,99551.03
2023-01-03T03:26:03.629Z,99551.03
2023-01-03T03:28:36.298Z,99560.13
2023-01-03T03:31:10.284Z,99549.88
2023-01-03T03:34:02.281Z,99565.09
2023-01-03T03:36:29.965Z,99575.53
2023-01-03T03:38:58.713Z,99577.78
2023-01-03T03:42:05.640Z,99574.72
2023-01-03T03:44:54.361Z,99565.31
2023-01-03T03:47:40.475Z,99574.69
2023-01-03T03:50:27.094Z,99574.97
2023-01-03T03:53:00.262Z,99574.44
2023-01-03T03:55:42.842Z,99570.84
2023-01-03T03:58:21.035Z,99574.97
2023-01-03T04:00:51.643Z,99566.97
2023-01-03T04:03:21.557Z,99572.50
2023-01-03T04:05:55.193Z,99531.00
2023-01-03T04:08:23.070Z,99575.75
2023-01-03T04:10:51.251Z,99581.53
2023-01-03T04:13:19.043Z,99583.75
2023-01-03T04:15:46.681Z,99577.69
2023-01-03T04:18:14.395Z,99584.88
2023-01-03T04:20:42.015Z,99578.78
2023-01-03T04:23:09.655Z,99576.56
2023-01-03T04:25:37.277Z,99579.34
2023-01-03T04:28:05.062Z,99528.44
2023-01-03T04:30:32.715Z,99580.66
2023-01-03T04:33:04.884Z,99573.19
2023-01-03T04:35:34.039Z,99574.31
2023-01-03T04:38:01.820Z,99577.88
2023-01-03T04:40:29.554Z,99573.19
2023-01-03T04:43:14.736Z,99569.06
2023-01-03T04:45:42.452Z,99577.88
2023-01-03T04:48:10.147Z,99577.06
2023-01-03T04:50:37.797Z,99565.75
2023-01-03T04:53:05.517Z,99576.75
2023-01-03T04:55:33.190Z,99570.97
2023-01-03T04:58:00.864Z,99576.50
2023-01-03T05:00:28.521Z,99569.88
2023-01-03T05:02:56.176Z,99569.88
2023-01-03T05:05:23.853Z,99571.00
2023-01-03T05:07:51.514Z,99573.47
2023-01-03T05:10:19.213Z,99562.66
2023-01-03T05:12:59.716Z,99572.53
2023-01-03T05:15:32.281Z,99570.84
2023-01-03T05:17:59.929Z,99578.50
2023-01-03T05:20:45.389Z,99578.50
2023-01-03T05:23:40.399Z,99576.53
2023-01-03T05:26:17.176Z,99581.00
2023-01-03T05:28:48.187Z,99579.56
2023-01-03T05:31:16.012Z,99577.94
2023-01-03T05:33:43.792Z,99571.13
2023-01-03T05:36:11.975Z,99572.31
2023-01-03T05:38:39.764Z,99589.25
2023-01-03T05:41:07.561Z,99603.00
2023-01-03T05:43:35.209Z,99601.25
2023-01-03T05:46:03.039Z,99604.09
2023-01-03T05:48:30.851Z,99592.53
2023-01-03T05:50:59.331Z,99544.31
2023-01-03T05:53:27.013Z,99547.31
2023-01-03T05:55:54.694Z,99597.69
2023-01-03T05:58:22.369Z,99604.41
2023-01-03T06:00:49.994Z,99607.69
2023-01-03T06:03:17.679Z,99611.84
2023-01-03T06:05:50.119Z,99607.81
2023-01-03T06:08:18.491Z,99611.91
2023-01-03T06:10:46.098Z,99585.53
2023-01-03T06:13:13.948Z,99599.63
2023-01-03T06:15:41.581Z,99612.44
2023-01-03T06:18:08.248Z,99615.03
2023-01-03T06:20:36.265Z,99615.53
2023-01-03T06:23:03.925Z,99607.31
2023-01-03T06:25:31.600Z,99599.41
2023-01-03T06:27:59.235Z,99621.75
2023-01-03T06:30:27.060Z,99624.22
2023-01-03T06:32:54.819Z,99609.38
2023-01-03T06:35:22.502Z,99561.25
2023-01-03T06:37:50.147Z,99631.94
2023-01-03T06:40:19.421Z,99635.13
2023-01-03T06:42:47.049Z,99620.25
2023-01-03T06:45:44.685Z,99639.28
2023-01-03T06:48:29.745Z,99631.06
2023-01-03T06:51:14.830Z,99640.81
2023-01-03T06:53:43.932Z,99629.16
2023-01-03T06:56:11.764Z,99642.22
2023-01-03T06:58:39.458Z,99649.63
2023-01-03T07:01:07.564Z,99647.06
2023-01-03T07:03:35.361Z,99654.47
2023-01-03T07:06:03.126Z,99629.13
2023-01-03T07:08:30.803Z,99650.00
2023-01-03T07:10:58.416Z,99645.22
2023-01-03T07:13:43.526Z,99643.88
2023-01-03T07:16:16.010Z,99651.69
2023-01-03T07:18:46.964Z,99660.03
2023-01-03T07:21:21.131Z,99653.00
2023-01-03T07:23:48.925Z,99645.75
2023-01-03T07:26:17.862Z,99661.28
2023-01-03T07:28:45.502Z,99654.97
2023-01-03T07:31:13.310Z,99663.06
2023-01-03T07:33:41.056Z,99622.38
2023-01-03T07:36:13.001Z,99668.28
2023-01-03T07:38:45.602Z,99667.19
2023-01-03T07:41:14.543Z,99667.47
2023-01-03T07:43:44.442Z,99651.09
2023-01-03T07:46:16.637Z,99669.03
2023-01-03T07:48:44.904Z,99669.38
2023-01-03T07:51:15.739Z,99669.63
2023-01-03T07:53:43.781Z,99672.81
2023-01-03T07:56:13.694Z,99674.69
2023-01-03T07:58:43.489Z,99680.44
2023-01-03T08:01:17.344Z,99655.25
2023-01-03T08:03:45.845Z,99673.78
2023-01-03T08:06:19.868Z,99680.75
2023-01-03T08:09:08.876Z,99678.75
2023-01-03T08:11:54.371Z,99682.38
2023-01-03T08:14:26.175Z,99684.44
2023-01-03T08:16:54.867Z,99689.97
2023-01-03T08:19:22.650Z,99687.44
2023-01-03T08:21:50.340Z,99683.47
2023-01-03T08:24:17.961Z,99675.78
2023-01-03T08:26:45.733Z,99688.00
2023-01-03T08:29:13.583Z,99692.41
2023-01-03T08:31:45.079Z,99693.94
2023-01-03T08:34:19.588Z,99697.78
2023-01-03T08:36:52.955Z,99690.69
2023-01-03T08:39:22.962Z,99695.94
2023-01-03T08:41:58.580Z,99697.63
2023-01-03T08:44:26.911Z,99684.22
2023-01-03T08:46:57.041Z,99702.34
2023-01-03T08:49:25.287Z,99710.03
2023-01-03T08:51:54.126Z,99714.56
2023-01-03T08:54:21.947Z,99703.28
2023-01-03T08:56:49.677Z,99728.50
2023-01-03T08:59:17.296Z,99720.25
2023-01-03T09:01:45.184Z,99726.50
2023-01-03T09:04:13.078Z,99735.78
2023-01-03T09:06:40.866Z,99736.91
2023-01-03T09:09:09.546Z,99735.69
2023-01-03T09:11:37.275Z,99731.75
2023-01-03T09:14:04.904Z,99730.88
2023-01-03T09:16:32.723Z,99733.94
2023-01-03T09:19:02.537Z,99724.09
2023-01-03T09:21:30.857Z,99733.44
2023-01-03T09:23:59.071Z,99737.16
2023-01-03T09:26:26.869Z,99741.63
2023-01-03T09:28:54.491Z,99744.50
2023-01-03T09:31:22.196Z,99737.34
2023-01-03T09:33:49.891Z,99729.88
2023-01-03T09:36:17.612Z,99732.09
2023-01-03T09:38:45.289Z,99734.84
2023-01-03T09:41:22.975Z,99734.34
2023-01-03T09:43:53.858Z,99722.72
2023-01-03T09:46:26.802Z,99727.75
2023-01-03T09:48:56.225Z,99724.72
2023-01-03T09:51:55.199Z,99703.59
2023-01-03T09:54:49.941Z,99731.63
2023-01-03T09:57:44.410Z,99721.25
2023-01-03T10:00:51.200Z,99713.81
2023-01-03T10:03:50.777Z,99718.69
2023-01-03T10:06:40.972Z,99705.31
2023-01-03T10:09:17.656Z,99712.41
2023-01-03T10:12:23.804Z,99709.13
2023-01-03T10:15:25.938Z,99642.75
2023-01-03T10:17:56.596Z,99713.25
2023-01-03T10:20:28.095Z,99705.16
2023-01-03T10:23:01.301Z,99704.31
2023-01-03T10:25:29.915Z,99704.53
2023-01-03T10:28:05.540Z,99703.88
2023-01-03T10:31:08.325Z,99696.38
2023-01-03T10:33:45.473Z,99696.91
2023-01-03T10:36:14.437Z,99694.16
2023-01-03T10:38:51.970Z,99697.41
2023-01-03T10:41:42.326Z,99696.88
2023-01-03T10:44:23.287Z,99688.91
2023-01-03T10:46:54.030Z,99681.09
2023-01-03T10:49:27.954Z,99676.59
2023-01-03T10:52:03.185Z,99676.41
2023-01-03T10:54:45.345Z,99669.47
2023-01-03T10:57:39.314Z,99659.28
2023-01-03T11:00:28.176Z,99654.59
2023-01-03T11:03:02.194Z,99656.31
2023-01-03T11:05:29.865Z,99657.22
2023-01-03T11:08:03.736Z,99661.91
2023-01-03T11:10:39.625Z,99655.56
2023-01-03T11:13:24.337Z,99657.78
2023-01-03T11:15:57.283Z,99652.78
2023-01-03T11:18:30.044Z,99658.25
2023-01-03T11:20:58.210Z,99660.44
2023-01-03T11:23:44.234Z,99657.50
2023-01-03T11:26:20.874Z,99655.84
2023-01-03T11:29:26.061Z,99653.06
2023-01-03T11:32:06.112Z,99655.25
2023-01-03T11:34:55.399Z,99656.69
2023-01-03T11:37:45.525Z,99633.22
2023-01-03T11:40:25.065Z,99649.25
2023-01-03T11:43:14.045Z,99643.44
2023-01-03T11:46:13.898Z,99641.50
2023-01-03T11:48:50.396Z,99640.88
2023-01-03T11:51:31.643Z,99644.41
2023-01-03T11:54:23.817Z,99630.88
2023-01-03T11:56:52.006Z,99628.13
2023-01-03T11:59:41.314Z,99629.19
2023-01-03T12:02:11.887Z,99632.00
2023-01-03T12:04:57.675Z,99629.03
2023-01-03T12:07:48.390Z,99630.19
2023-01-03T12:10:19.539Z,99619.97
2023-01-03T12:13:18.886Z,99622.19
2023-01-03T12:15:56.933Z,99616.44
2023-01-03T12:18:34.272Z,99617.22
2023-01-03T12:21:10.504Z,99600.56
2023-01-03T12:24:07.689Z,99615.00
2023-01-03T12:26:41.875Z,99607.94
2023-01-03T12:29:47.797Z,99611.78
2023-01-03T12:32:41.655Z,99608.75
2023-01-03T12:35:17.382Z,99614.56
2023-01-03T12:37:49.908Z,99610.41
2023-01-03T12:40:35.551Z,99607.31
2023-01-03T12:43:30.629Z,99608.50
2023-01-03T12:46:12.519Z,99605.25
2023-01-03T12:48:50.039Z,99606.00
2023-01-03T12:51:22.816Z,99601.28
2023-01-03T12:54:16.964Z,99587.47
2023-01-03T12:57:25.812Z,99592.16
2023-01-03T13:00:31.023Z,99589.19
2023-01-03T13:03:08.084Z,99602.97
2023-01-03T13:05:50.626Z,99597.22
2023-01-03T13:08:36.267Z,99597.81
2023-01-03T13:11:16.461Z,99601.91
2023-01-03T13:13:54.423Z,99558.75
2023-01-03T13:16:37.191Z,99598.56
2023-01-03T13:19:25.140Z,99598.00
2023-01-03T13:21:55.731Z,99596.34
2023-01-03T13:24:52.318Z,99598.28
2023-01-03T13:27:20.457Z,99596.34
2023-01-03T13:29:51.083Z,99601.03
2023-01-03T13:32:21.654Z,99594.09
2023-01-03T13:34:55.276Z,99599.66
2023-01-03T13:37:27.279Z,99601.59
2023-01-03T13:40:31.166Z,99604.06
2023-01-03T13:43:07.249Z,99600.50
2023-01-03T13:45:34.869Z,99593.81
2023-01-03T13:48:19.243Z,99592.16
2023-01-03T13:51:07.762Z,99599.31
2023-01-03T13:53:41.263Z,99592.22
2023-01-03T13:56:18.205Z,99591.41
2023-01-03T13:58:49.970Z,99596.28
2023-01-03T14:01:37.910Z,99596.06
2023-01-03T14:04:44.019Z,99594.16
2023-01-03T14:07:47.899Z,99594.94
2023-01-03T14:10:49.319Z,99601.28
2023-01-03T14:13:38.619Z,99600.69
2023-01-03T14:16:27.272Z,99596.03
2023-01-03T14:19:20.800Z,99611.72
2023-01-03T14:22:29.585Z,99602.91
2023-01-03T14:25:00.070Z,99591.25
2023-01-03T14:27:36.518Z,99604.56
2023-01-03T14:30:05.339Z,99612.00
2023-01-03T14:32:36.158Z,99603.72
2023-01-03T14:35:04.842Z,99608.41
2023-01-03T14:37:34.948Z,99581.81
2023-01-03T14:40:06.277Z,99600.69
2023-01-03T14:42:34.007Z,99599.03
2023-01-03T14:45:05.110Z,99609.53
2023-01-03T14:47:39.559Z,99601.53
2023-01-03T14:50:12.418Z,99615.28
2023-01-03T14:52:42.387Z,99619.50
2023-01-03T14:55:20.454Z,99616.75
2023-01-03T14:57:50.415Z,99607.88
2023-01-03T15:00:25.335Z,99611.72
2023-01-03T15:02:58.500Z,99590.75
2023-01-03T15:05:30.858Z,99592.91
2023-01-03T15:08:13.764Z,99615.56
2023-01-03T15:10:59.546Z,99610.31
2023-01-03T15:13:36.136Z,99600.56
2023-01-03T15:16:07.819Z,99615.44
2023-01-03T15:18:40.775Z,99621.25
2023-01-03T15:21:08.464Z,99622.69
2023-01-03T15:23:43.398Z,99625.50
2023-01-03T15:26:27.933Z,99629.06
2023-01-03T15:29:20.680Z,99630.69
2023-01-03T15:31:54.525Z,99632.66
2023-01-03T15:34:26.666Z,99634.59
2023-01-03T15:37:15.792Z,99637.88
2023-01-03T15:39:55.641Z,99634.84
2023-01-03T15:42:47.898Z,99636.53
2023-01-03T15:45:23.960Z,99640.47
2023-01-03T15:47:54.343Z,99643.41
2023-01-03T15:50:22.548Z,99644.72
2023-01-03T15:52:50.633Z,99648.06
2023-01-03T15:55:18.880Z,99649.69
2023-01-03T15:57:52.405Z,99650.16
2023-01-03T16:00:23.511Z,99647.13
2023-01-03T16:02:51.796Z,99651.25
2023-01-03T16:05:22.847Z,99609.50
2023-01-03T16:07:51.640Z,99653.78
2023-01-03T16:10:21.697Z,99654.59
2023-01-03T16:12:49.649Z,99642.47
2023-01-03T16:15:23.258Z,99642.59
2023-01-03T16:17:52.235Z,99626.31
2023-01-03T16:20:20.301Z,99647.88
2023-01-03T16:23:01.013Z,99651.44
2023-01-03T16:25:29.512Z,99656.91
2023-01-03T16:27:57.385Z,99645.22
2023-01-03T16:30:25.458Z,99627.81
2023-01-03T16:32:53.277Z,99662.44
2023-01-03T16:35:21.562Z,99655.25
2023-01-03T16:37:49.299Z,99660.13
2023-01-03T16:40:20.224Z,99663.16
2023-01-03T16:42:48.386Z,99669.59
2023-01-03T16:45:17.461Z,99659.41
2023-01-03T16:47:45.260Z,99671.81
2023-01-03T16:50:19.514Z,99668.53
2023-01-03T16:52:55.715Z,99655.25
2023-01-03T16:55:32.480Z,99670.97
2023-01-03T16:58:00.354Z,99674.28
2023-01-03T17:00:31.211Z,99670.31
2023-01-03T17:03:00.654Z,99673.97
2023-01-03T17:05:32.760Z,99651.56
2023-01-03T17:08:07.682Z,99672.56
2023-01-03T17:10:40.106Z,99679.41
2023-01-03T17:13:12.736Z,99688.84
2023-01-03T17:15:42.291Z,99694.69
2023-01-03T17:18:20.614Z,99688.94
2023-01-03T17:20:53.031Z,99696.09
2023-01-03T17:23:21.061Z,99701.06
2023-01-03T17:25:48.760Z,99704.41
2023-01-03T17:28:16.754Z,99714.31
2023-01-03T17:30:45.225Z,99697.69
2023-01-03T17:33:16.563Z,99724.78
2023-01-03T17:35:46.846Z,99718.44
2023-01-03T17:38:31.836Z,99721.50
2023-01-03T17:40:59.574Z,99717.63
2023-01-03T17:43:27.651Z,99719.84
2023-01-03T17:46:22.498Z,99708.25
2023-01-03T17:49:08.461Z,99712.38
2023-01-03T17:51:36.193Z,99703.81
2023-01-03T17:54:04.938Z,99656.75
2023-01-03T17:56:32.616Z,99714.09
2023-01-03T17:59:00.470Z,99718.19
2023-01-03T18:01:28.300Z,99690.28
2023-01-03T18:03:56.155Z,99709.41
2023-01-03T18:06:26.666Z,99713.50
2023-01-03T18:08:56.498Z,99711.00
2023-01-03T18:11:28.084Z,99720.19
2023-01-03T18:13:55.758Z,99708.25
2023-01-03T18:16:24.311Z,99717.13
2023-01-03T18:18:52.162Z,99717.91
2023-01-03T18:21:25.100Z,99717.63
2023-01-03T18:24:02.690Z,99713.78
2023-01-03T18:26:37.123Z,99672.78
2023-01-03T18:29:07.532Z,99720.97
2023-01-03T18:31:35.318Z,99695.53
2023-01-03T18:34:04.381Z,99721.00
2023-01-03T18:36:41.147Z,99726.72
2023-01-03T18:39:15.002Z,99730.88
2023-01-03T18:41:43.584Z,99730.78
2023-01-03T18:44:23.204Z,99730.28
2023-01-03T18:46:52.457Z,99730.97
2023-01-03T18:49:20.231Z,99745.00
2023-01-03T18:51:50.611Z,99734.56
2023-01-03T18:54:20.642Z,99721.03
2023-01-03T18:56:48.400Z,99743.34
2023-01-03T18:59:25.173Z,99737.56
2023-01-03T19:01:53.736Z,99743.84
2023-01-03T19:04:21.601Z,99733.16
2023-01-03T19:06:52.129Z,99741.44
2023-01-03T19:09:29.217Z,99746.41
2023-01-03T19:11:57.326Z,99702.84
2023-01-03T19:14:24.973Z,99752.75
2023-01-03T19:16:52.613Z,99743.09
2023-01-03T19:19:20.281Z,99689.31
2023-01-03T19:21:48.913Z,99742.84
2023-01-03T19:24:39.202Z,99743.66
2023-01-03T19:27:14.503Z,99741.97
2023-01-03T19:29:43.274Z,99745.28
2023-01-03T19:32:21.120Z,99755.81
2023-01-03T19:34:49.204Z,99727.28
2023-01-03T19:37:17.079Z,99758.81
2023-01-03T19:39:44.834Z,99754.69
2023-01-03T19:42:34.953Z,99759.09
2023-01-03T19:45:03.806Z,99740.84
2023-01-03T19:47:31.485Z,99759.09
2023-01-03T19:50:07.746Z,99761.63
2023-01-03T19:52:38.770Z,99767.16
2023-01-03T19:55:06.964Z,99767.97
2023-01-03T19:57:35.209Z,99780.09
2023-01-03T20:00:05.272Z,99770.09
2023-01-03T20:02:41.371Z,99780.31
2023-01-03T20:05:22.941Z,99772.91
2023-01-03T20:07:51.043Z,99781.81
2023-01-03T20:10:24.905Z,99790.38
2023-01-03T20:12:55.750Z,99780.34
2023-01-03T20:15:27.054Z,99790.88
2023-01-03T20:17:55.239Z,99784.25
2023-01-03T20:20:25.494Z,99785.03
2023-01-03T20:23:06.428Z,99784.59
2023-01-03T20:25:37.079Z,99779.88
2023-01-03T20:28:05.621Z,99787.38
2023-01-03T20:30:35.330Z,99788.72
2023-01-03T20:33:03.143Z,99785.06
2023-01-03T20:36:09.578Z,99792.19
2023-01-03T20:38:24.792Z,99786.97
2023-01-03T20:40:56.533Z,99778.41
2023-01-03T20:43:25.155Z,99777.00
2023-01-03T20:45:58.647Z,99766.78
2023-01-03T20:48:26.875Z,99788.66
2023-01-03T20:50:55.302Z,99782.84
2023-01-03T20:53:25.965Z,99779.78
2023-01-03T20:55:54.463Z,99766.41
2023-01-03T20:58:26.126Z,99783.63
2023-01-03T21:01:01.661Z,99791.09
2023-01-03T21:03:33.337Z,99784.44
2023-01-03T21:06:01.154Z,99791.69
2023-01-03T21:08:46.400Z,99793.88
2023-01-03T21:11:14.399Z,99782.31
2023-01-03T21:13:42.285Z,99783.78
2023-01-03T21:16:36.631Z,99782.28
2023-01-03T21:19:24.660Z,99787.00
2023-01-03T21:21:58.344Z,99772.88
2023-01-03T21:24:26.197Z,99788.94
2023-01-03T21:26:53.903Z,99791.97
2023-01-03T21:29:22.066Z,99797.75
2023-01-03T21:31:50.064Z,99789.19
2023-01-03T21:34:20.731Z,99786.41
2023-01-03T21:36:48.923Z,99796.91
2023-01-03T21:39:16.932Z,99778.09
2023-01-03T21:42:02.658Z,99797.78
2023-01-03T21:44:30.503Z,99805.47
2023-01-03T21:46:58.193Z,99804.66
2023-01-03T21:49:25.836Z,99793.06
2023-01-03T21:51:53.551Z,99804.91
2023-01-03T21:54:21.234Z,99812.91
2023-01-03T21:56:49.502Z,99802.78
2023-01-03T21:59:17.680Z,99818.16
2023-01-03T22:02:06.328Z,99819.00
2023-01-03T22:04:34.972Z,99810.13
2023-01-03T22:07:02.820Z,99816.50
2023-01-03T22:09:49.757Z,99815.13
2023-01-03T22:12:18.214Z,99827.53
2023-01-03T22:14:47.393Z,99823.66
2023-01-03T22:17:15.216Z,99822.31
2023-01-03T22:19:42.937Z,99821.13
2023-01-03T22:22:11.132Z,99827.78
2023-01-03T22:24:38.808Z,99823.63
2023-01-03T22:27:06.539Z,99836.06
2023-01-03T22:29:34.305Z,99836.06
2023-01-03T22:32:02.235Z,99839.66
2023-01-03T22:34:30.087Z,99768.38
2023-01-03T22:36:57.794Z,99841.31
2023-01-03T22:39:25.934Z,99827.47
2023-01-03T22:41:53.600Z,99848.53
2023-01-03T22:44:21.348Z,99851.75
2023-01-03T22:46:49.181Z,99840.97
2023-01-03T22:49:16.816Z,99827.69
2023-01-03T22:51:44.479Z,99810.25
2023-01-03T22:54:12.162Z,99835.84
2023-01-03T22:56:39.803Z,99835.56
2023-01-03T22:59:07.449Z,99818.94
2023-01-03T23:01:35.221Z,99836.63
2023-01-03T23:04:03.658Z,99834.38
2023-01-03T23:06:32.813Z,99839.88
2023-01-03T23:09:01.807Z,99836.06
2023-01-03T23:11:49.605Z,99832.25
2023-01-03T23:14:20.453Z,99838.00
2023-01-03T23:16:50.827Z,99830.13
2023-01-03T23:19:20.596Z,99833.56
2023-01-03T23:21:48.471Z,99833.88
2023-01-03T23:24:18.931Z,99834.44
2023-01-03T23:26:46.794Z,99845.16
2023-01-03T23:29:15.392Z,99841.28
2023-01-03T23:31:43.989Z,99839.63
2023-01-03T23:34:12.959Z,99831.53
2023-01-03T23:36:42.979Z,99832.97
2023-01-03T23:39:16.533Z,99838.47
2023-01-03T23:41:45.014Z,99831.91
2023-01-03T23:44:13.216Z,99844.31
2023-01-03T23:46:41.257Z,99833.81
2023-01-03T23:49:10.659Z,99823.19
2023-01-03T23:51:38.497Z,99831.13
2023-01-03T23:54:06.196Z,99819.75
2023-01-03T23:56:33.940Z,99834.66
2023-01-03T23:59:01.649Z,99829.94
